createdAt,value
2023-04-25T00:00:21.084Z,100336.28
2023-04-25T00:02:22.771Z,100344.44
2023-04-25T00:04:24.710Z,100347.16
2023-04-25T00:06:26.470Z,100338.78
2023-04-25T00:08:28.112Z,100334.63
2023-04-25T00:10:29.854Z,100333.56
2023-04-25T00:12:31.522Z,100332.50
2023-04-25T00:14:34.498Z,100332.31
2023-04-25T00:16:36.135Z,100327.72
2023-04-25T00:18:40.426Z,100331.03
2023-04-25T00:20:42.042Z,100333.97
2023-04-25T00:22:43.581Z,100331.03
2023-04-25T00:24:45.313Z,100331.03
2023-04-25T00:26:46.929Z,100328.31
2023-04-25T00:28:48.917Z,100328.13
2023-04-25T00:30:51.933Z,100336.28
2023-04-25T00:32:53.492Z,100330.59
2023-04-25T00:34:55.992Z,100328.97
2023-04-25T00:36:57.543Z,100340.47
2023-04-25T00:38:59.123Z,100331.28
2023-04-25T00:41:01.100Z,100328.56
2023-04-25T00:43:02.634Z,100331.88
2023-04-25T00:45:07.043Z,100336.47
2023-04-25T00:47:11.793Z,100337.94
2023-04-25T00:49:13.527Z,100347.53
2023-04-25T00:51:19.952Z,100334.78
2023-04-25T00:53:22.430Z,100336.47
2023-04-25T00:55:24.138Z,100336.22
2023-04-25T00:57:26.084Z,100337.66
2023-04-25T00:59:28.876Z,100338.75
2023-04-25T01:01:31.199Z,100332.22
2023-04-25T01:03:35.553Z,100342.06
2023-04-25T01:05:37.389Z,100340.38
2023-04-25T01:07:39.101Z,100341.47
2023-04-25T01:09:41.866Z,100348.13
2023-04-25T01:11:43.427Z,100349.19
2023-04-25T01:13:45.225Z,100351.66
2023-04-25T01:15:46.870Z,100356.06
2023-04-25T01:17:48.529Z,100350.84
2023-04-25T01:19:51.722Z,100351.66
2023-04-25T01:21:54.807Z,100359.63
2023-04-25T01:23:56.871Z,100355.22
2023-04-25T01:25:58.537Z,100351.66
2023-04-25T01:28:00.160Z,100357.94
2023-04-25T01:30:01.897Z,100355.22
2023-04-25T01:32:03.992Z,100362.78
2023-04-25T01:34:05.774Z,100368.22
2023-04-25T01:36:08.070Z,100360.25
2023-04-25T01:38:13.220Z,100362.78
2023-04-25T01:40:14.739Z,100362.13
2023-04-25T01:42:16.463Z,100368.22
2023-04-25T01:44:18.184Z,100366.78
2023-04-25T01:46:20.083Z,100363.81
2023-04-25T01:48:21.718Z,100362.97
2023-04-25T01:50:24.121Z,100361.09
2023-04-25T01:52:25.710Z,100364.66
2023-04-25T01:54:28.682Z,100363.81
2023-04-25T01:56:31.514Z,100361.94
2023-04-25T01:58:33.046Z,100371.13
2023-04-25T02:00:34.663Z,100363.81
2023-04-25T02:02:36.459Z,100371.97
2023-04-25T02:04:38.241Z,100372.81
2023-04-25T02:06:39.933Z,100373.03
2023-04-25T02:08:41.546Z,100373.84
2023-04-25T02:10:44.681Z,100372.22
2023-04-25T02:12:46.240Z,100375.75
2023-04-25T02:14:49.674Z,100378.69
2023-04-25T02:16:51.270Z,100380.56
2023-04-25T02:18:52.960Z,100378.06
2023-04-25T02:20:54.986Z,100380.78
2023-04-25T02:22:56.633Z,100378.28
2023-04-25T02:24:58.204Z,100382.88
2023-04-25T02:27:01.191Z,100380.38
2023-04-25T02:29:02.714Z,100380.59
2023-04-25T02:31:04.417Z,100376.22
2023-04-25T02:33:06.226Z,100375.59
2023-04-25T02:35:08.531Z,100374.94
2023-04-25T02:37:10.125Z,100371.63
2023-04-25T02:39:11.784Z,100379.97
2023-04-25T02:41:13.251Z,100376.00
2023-04-25T02:43:16.518Z,100373.53
2023-04-25T02:45:18.293Z,100374.56
2023-04-25T02:47:20.135Z,100366.63
2023-04-25T02:49:22.181Z,100373.31
2023-04-25T02:51:23.785Z,100372.69
2023-04-25T02:53:25.488Z,100368.53
2023-04-25T02:55:28.432Z,100376.91
2023-04-25T02:57:30.083Z,100375.00
2023-04-25T02:59:33.250Z,100379.81
2023-04-25T03:01:34.862Z,100372.94
2023-04-25T03:03:36.584Z,100371.47
2023-04-25T03:05:38.225Z,100369.81
2023-04-25T03:07:39.795Z,100376.28
2023-04-25T03:09:41.350Z,100375.66
2023-04-25T03:11:43.317Z,100370.66
2023-04-25T03:13:44.821Z,100378.81
2023-04-25T03:15:47.740Z,100374.44
2023-04-25T03:17:49.319Z,100373.81
2023-04-25T03:19:50.996Z,100380.91
2023-04-25T03:21:52.707Z,100370.47
2023-04-25T03:23:54.256Z,100374.63
2023-04-25T03:25:55.825Z,100371.28
2023-04-25T03:27:57.393Z,100374.22
2023-04-25T03:29:59.293Z,100375.06
2023-04-25T03:32:02.268Z,100373.41
2023-04-25T03:34:03.889Z,100372.78
2023-04-25T03:36:06.380Z,100371.94
2023-04-25T03:38:07.995Z,100374.88
2023-04-25T03:40:10.071Z,100379.47
2023-04-25T03:42:11.734Z,100379.69
2023-04-25T03:44:13.286Z,100372.78
2023-04-25T03:46:15.053Z,100385.31
2023-04-25T03:48:18.396Z,100382.84
2023-04-25T03:50:19.965Z,100382.19
2023-04-25T03:52:21.514Z,100391.38
2023-04-25T03:54:23.414Z,100392.03
2023-04-25T03:56:25.095Z,100392.22
2023-04-25T03:58:26.636Z,100384.06
2023-04-25T04:00:28.163Z,100389.50
2023-04-25T04:02:35.398Z,100398.69
2023-04-25T04:04:38.753Z,100399.53
2023-04-25T04:06:40.466Z,100394.94
2023-04-25T04:08:42.041Z,100400.16
2023-04-25T04:10:43.728Z,100402.88
2023-04-25T04:12:45.360Z,100408.31
2023-04-25T04:14:46.906Z,100407.28
2023-04-25T04:16:48.536Z,100418.94
2023-04-25T04:18:50.050Z,100413.53
2023-04-25T04:20:53.180Z,100408.31
2023-04-25T04:22:54.792Z,100407.28
2023-04-25T04:24:56.583Z,100414.38
2023-04-25T04:26:58.143Z,100415.19
2023-04-25T04:28:59.702Z,100415.84
2023-04-25T04:31:01.293Z,100415.84
2023-04-25T04:33:03.047Z,100421.69
2023-04-25T04:35:06.472Z,100418.75
2023-04-25T04:37:09.826Z,100419.56
2023-04-25T04:39:11.365Z,100421.47
2023-04-25T04:41:12.886Z,100431.06
2023-04-25T04:43:14.462Z,100424.16
2023-04-25T04:45:16.182Z,100427.72
2023-04-25T04:47:17.711Z,100436.50
2023-04-25T04:49:19.271Z,100440.03
2023-04-25T04:51:20.950Z,100437.13
2023-04-25T04:53:23.837Z,100437.13
2023-04-25T04:55:25.396Z,100442.56
2023-04-25T04:57:27.002Z,100435.03
2023-04-25T04:59:28.657Z,100442.13
2023-04-25T05:01:30.272Z,100440.47
2023-04-25T05:03:32.342Z,100436.69
2023-04-25T05:05:34.149Z,100443.41
2023-04-25T05:07:36.197Z,100439.66
2023-04-25T05:09:39.176Z,100441.28
2023-04-25T05:11:40.728Z,100446.97
2023-04-25T05:13:42.331Z,100442.38
2023-04-25T05:15:44.010Z,100448.00
2023-04-25T05:17:45.667Z,100451.31
2023-04-25T05:19:47.207Z,100452.41
2023-04-25T05:21:48.832Z,100448.84
2023-04-25T05:23:50.468Z,100449.69
2023-04-25T05:25:53.611Z,100458.66
2023-04-25T05:27:55.168Z,100456.75
2023-04-25T05:29:56.689Z,100453.00
2023-04-25T05:31:58.272Z,100455.53
2023-04-25T05:33:59.894Z,100462.41
2023-04-25T05:36:01.456Z,100466.81
2023-04-25T05:38:03.007Z,100468.06
2023-04-25T05:40:05.887Z,100469.50
2023-04-25T05:42:08.913Z,100473.66
2023-04-25T05:44:10.449Z,100476.19
2023-04-25T05:46:12.278Z,100476.19
2023-04-25T05:48:14.394Z,100477.88
2023-04-25T05:50:16.190Z,100470.75
2023-04-25T05:52:17.786Z,100470.75
2023-04-25T05:54:19.350Z,100477.47
2023-04-25T05:56:21.056Z,100483.69
2023-04-25T05:58:23.958Z,100482.66
2023-04-25T06:00:25.869Z,100491.06
2023-04-25T06:02:27.648Z,100495.66
2023-04-25T06:04:29.729Z,100500.66
2023-04-25T06:06:31.581Z,100501.91
2023-04-25T06:08:33.261Z,100519.69
2023-04-25T06:10:34.901Z,100513.19
2023-04-25T06:12:36.426Z,100498.78
2023-04-25T06:14:39.719Z,100504.63
2023-04-25T06:16:41.287Z,100509.22
2023-04-25T06:18:42.884Z,100507.34
2023-04-25T06:20:44.469Z,100497.09
2023-04-25T06:22:45.993Z,100506.28
2023-04-25T06:24:47.521Z,100515.91
2023-04-25T06:26:49.117Z,100524.06
2023-04-25T06:28:51.069Z,100511.09
2023-04-25T06:30:54.177Z,100518.81
2023-04-25T06:32:55.967Z,100515.69
2023-04-25T06:34:57.533Z,100516.31
2023-04-25T06:36:59.173Z,100514.22
2023-04-25T06:39:00.810Z,100512.97
2023-04-25T06:41:02.534Z,100510.03
2023-04-25T06:43:04.058Z,100511.53
2023-04-25T06:45:06.779Z,100524.06
2023-04-25T06:47:10.045Z,100511.09
2023-04-25T06:49:11.535Z,100517.38
2023-04-25T06:51:13.313Z,100518.00
2023-04-25T06:53:15.053Z,100522.16
2023-04-25T06:55:16.852Z,100522.16
2023-04-25T06:57:18.461Z,100536.41
2023-04-25T06:59:20.099Z,100524.25
2023-04-25T07:01:21.799Z,100531.97
2023-04-25T07:03:25.129Z,100530.09
2023-04-25T07:05:26.915Z,100528.88
2023-04-25T07:07:28.511Z,100529.66
2023-04-25T07:09:30.189Z,100534.06
2023-04-25T07:11:32.080Z,100535.75
2023-04-25T07:13:33.682Z,100543.25
2023-04-25T07:15:35.585Z,100535.09
2023-04-25T07:17:37.206Z,100542.41
2023-04-25T07:19:40.457Z,100536.09
2023-04-25T07:21:42.365Z,100540.31
2023-04-25T07:23:43.977Z,100541.56
2023-04-25T07:25:45.570Z,100541.72
2023-04-25T07:27:47.117Z,100546.13
2023-04-25T07:29:51.439Z,100544.00
2023-04-25T07:31:53.088Z,100548.63
2023-04-25T07:33:54.680Z,100550.72
2023-04-25T07:36:00.579Z,100552.59
2023-04-25T07:38:02.909Z,100561.00
2023-04-25T07:40:05.850Z,100556.59
2023-04-25T07:42:07.503Z,100564.97
2023-04-25T07:44:09.082Z,100560.78
2023-04-25T07:46:10.906Z,100561.81
2023-04-25T07:48:12.931Z,100571.47
2023-04-25T07:50:14.522Z,100569.56
2023-04-25T07:52:17.410Z,100571.03
2023-04-25T07:54:19.026Z,100571.88
2023-04-25T07:56:20.676Z,100574.38
2023-04-25T07:58:22.310Z,100575.22
2023-04-25T08:00:24.216Z,100578.78
2023-04-25T08:02:26.169Z,100568.94
2023-04-25T08:04:28.278Z,100590.06
2023-04-25T08:06:30.142Z,100579.16
2023-04-25T08:08:33.148Z,100575.81
2023-04-25T08:10:34.963Z,100582.91
2023-04-25T08:12:36.611Z,100589.19
2023-04-25T08:14:38.341Z,100590.03
2023-04-25T08:16:40.369Z,100592.56
2023-04-25T08:18:42.030Z,100592.56
2023-04-25T08:20:43.562Z,100605.09
2023-04-25T08:22:45.326Z,100603.00
2023-04-25T08:24:48.701Z,100608.25
2023-04-25T08:26:50.361Z,100606.56
2023-04-25T08:28:52.440Z,100604.69
2023-04-25T08:30:54.575Z,100609.06
2023-04-25T08:32:56.165Z,100621.63
2023-04-25T08:34:57.956Z,100614.50
2023-04-25T08:36:59.644Z,100619.56
2023-04-25T08:39:01.303Z,100622.03
2023-04-25T08:41:06.076Z,100632.94
2023-04-25T08:43:08.378Z,100625.41
2023-04-25T08:45:10.959Z,100623.28
2023-04-25T08:47:12.596Z,100627.25
2023-04-25T08:49:14.203Z,100625.97
2023-04-25T08:51:23.037Z,100633.31
2023-04-25T08:53:28.553Z,100641.06
2023-04-25T08:55:31.847Z,100628.69
2023-04-25T08:57:35.352Z,100649.44
2023-04-25T08:59:39.166Z,100652.16
2023-04-25T09:01:41.232Z,100648.59
2023-04-25T09:03:43.260Z,100645.88
2023-04-25T09:05:45.514Z,100648.59
2023-04-25T09:07:48.460Z,100653.00
2023-04-25T09:09:51.403Z,100661.59
2023-04-25T09:11:55.380Z,100665.56
2023-04-25T09:14:14.778Z,100665.56
2023-04-25T09:16:16.345Z,100667.88
2023-04-25T09:18:29.980Z,100685.28
2023-04-25T09:20:33.359Z,100678.59
2023-04-25T09:22:37.564Z,100682.34
2023-04-25T09:24:41.005Z,100697.00
2023-04-25T09:26:42.663Z,100694.50
2023-04-25T09:28:44.536Z,100688.41
2023-04-25T09:30:47.481Z,100698.28
2023-04-25T09:32:49.105Z,100700.78
2023-04-25T09:34:52.532Z,100694.69
2023-04-25T09:36:55.429Z,100702.22
2023-04-25T09:38:57.059Z,100692.38
2023-04-25T09:40:59.165Z,100690.69
2023-04-25T09:43:00.924Z,100692.78
2023-04-25T09:45:04.597Z,100695.25
2023-04-25T09:47:10.736Z,100714.31
2023-04-25T09:49:15.498Z,100693.19
2023-04-25T09:51:17.176Z,100696.09
2023-04-25T09:53:19.063Z,100704.28
2023-04-25T09:55:21.427Z,100705.34
2023-04-25T09:57:24.911Z,100717.88
2023-04-25T09:59:26.887Z,100712.44
2023-04-25T10:01:31.028Z,100717.88
2023-04-25T10:15:13.265Z,100757.91
2023-04-25T10:17:15.550Z,100741.38
2023-04-25T10:19:17.721Z,100737.19
2023-04-25T10:21:21.313Z,100742.63
2023-04-25T10:23:25.183Z,100746.19
2023-04-25T10:25:27.388Z,100729.84
2023-04-25T10:27:29.893Z,100739.88
2023-04-25T10:29:32.273Z,100733.81
2023-04-25T10:31:45.368Z,100736.75
2023-04-25T10:33:47.298Z,100736.94
2023-04-25T10:35:49.552Z,100729.41
2023-04-25T10:38:35.243Z,100739.00
2023-04-25T10:40:38.254Z,100747.16
2023-04-25T10:42:42.244Z,100744.03
2023-04-25T10:45:02.927Z,100733.75
2023-04-25T10:47:07.537Z,100735.59
2023-04-25T10:49:29.408Z,100740.41
2023-04-25T10:51:43.451Z,100739.34
2023-04-25T10:53:59.300Z,100733.06
2023-04-25T10:56:11.868Z,100737.00
2023-04-25T10:58:14.148Z,100738.47
2023-04-25T11:00:17.553Z,100748.09
2023-04-25T11:02:19.777Z,100740.75
2023-04-25T11:04:23.091Z,100747.25
2023-04-25T11:06:34.271Z,100749.78
2023-04-25T11:08:48.813Z,100746.22
2023-04-25T11:10:52.197Z,100748.09
2023-04-25T11:12:55.330Z,100745.59
2023-04-25T11:15:00.074Z,100747.69
2023-04-25T11:17:03.935Z,100754.19
2023-04-25T11:19:05.475Z,100756.06
2023-04-25T11:21:07.131Z,100752.31
2023-04-25T11:23:08.889Z,100761.75
2023-04-25T11:25:12.655Z,100760.72
2023-04-25T11:27:14.899Z,100760.06
2023-04-25T11:29:18.532Z,100762.81
2023-04-25T11:31:21.965Z,100776.25
2023-04-25T11:33:25.490Z,100765.16
2023-04-25T11:35:30.522Z,100776.47
2023-04-25T11:37:32.353Z,100779.84
2023-04-25T11:39:33.973Z,100781.91
2023-04-25T11:41:35.574Z,100778.78
2023-04-25T11:43:37.504Z,100786.34
2023-04-25T11:45:40.434Z,100780.50
2023-04-25T11:47:42.395Z,100780.50
2023-04-25T11:49:43.992Z,100777.13
2023-04-25T11:51:47.486Z,100776.50
2023-04-25T11:53:49.360Z,100782.41
2023-04-25T11:55:51.327Z,100796.41
2023-04-25T11:57:53.669Z,100793.47
2023-04-25T11:59:55.228Z,100795.16
2023-04-25T12:01:58.201Z,100789.50
2023-04-25T12:04:11.186Z,100783.81
2023-04-25T12:06:18.098Z,100792.22
2023-04-25T12:08:21.361Z,100781.09
2023-04-25T12:10:25.212Z,100786.31
2023-04-25T12:12:33.282Z,100799.50
2023-04-25T12:14:37.157Z,100801.44
2023-04-25T12:16:42.695Z,100798.25
2023-04-25T12:18:45.670Z,100797.66
2023-04-25T12:20:47.280Z,100804.97
2023-04-25T12:22:49.429Z,100805.81
2023-04-25T12:24:51.689Z,100800.56
2023-04-25T12:26:54.451Z,100802.06
2023-04-25T12:28:56.310Z,100810.00
2023-04-25T12:30:59.625Z,100797.59
2023-04-25T12:33:01.358Z,100808.94
2023-04-25T12:35:05.456Z,100799.50
2023-04-25T12:37:07.119Z,100799.25
2023-04-25T12:39:09.386Z,100809.34
2023-04-25T12:41:10.987Z,100815.22
2023-04-25T12:43:12.489Z,100812.91
2023-04-25T12:45:14.230Z,100816.28
2023-04-25T12:47:15.882Z,100820.50
2023-04-25T12:49:19.200Z,100821.75
2023-04-25T12:51:22.562Z,100826.78
2023-04-25T12:53:24.489Z,100828.47
2023-04-25T12:55:26.090Z,100825.75
2023-04-25T12:57:27.615Z,100830.59
2023-04-25T12:59:29.188Z,100829.34
2023-04-25T13:01:31.009Z,100826.19
2023-04-25T13:03:32.920Z,100816.53
2023-04-25T13:05:34.660Z,100828.69
2023-04-25T13:07:37.637Z,100829.13
2023-04-25T13:09:39.490Z,100829.31
2023-04-25T13:11:41.036Z,100826.81
2023-04-25T13:13:42.836Z,100822.41
2023-04-25T13:15:44.653Z,100827.03
2023-04-25T13:17:46.255Z,100826.81
2023-04-25T13:19:48.141Z,100822.00
2023-04-25T13:21:49.659Z,100827.25
2023-04-25T13:23:52.924Z,100828.69
2023-04-25T13:25:55.785Z,100814.66
2023-04-25T13:27:57.338Z,100825.16
2023-04-25T13:29:58.959Z,100822.41
2023-04-25T13:32:00.631Z,100832.47
2023-04-25T13:34:02.357Z,100820.31
2023-04-25T13:36:04.532Z,100832.22
2023-04-25T13:38:06.070Z,100822.16
2023-04-25T13:40:11.467Z,100815.63
2023-04-25T13:42:13.097Z,100822.97
2023-04-25T13:44:15.066Z,100812.91
2023-04-25T13:46:35.396Z,100817.91
2023-04-25T13:48:38.283Z,100820.03
2023-04-25T13:50:39.939Z,100823.38
2023-04-25T13:52:41.645Z,100820.22
2023-04-25T13:54:43.209Z,100818.13
2023-04-25T13:56:46.331Z,100823.34
2023-04-25T13:58:47.944Z,100822.91
2023-04-25T14:00:49.598Z,100830.28
2023-04-25T14:02:51.646Z,100813.91
2023-04-25T14:04:53.338Z,100836.97
2023-04-25T14:06:54.983Z,100830.69
2023-04-25T14:08:57.196Z,100831.34
2023-04-25T14:10:58.950Z,100831.34
2023-04-25T14:13:01.946Z,100830.06
2023-04-25T14:15:04.165Z,100823.13
2023-04-25T14:17:05.752Z,100829.66
2023-04-25T14:19:07.423Z,100833.44
2023-04-25T14:21:09.115Z,100837.00
2023-04-25T14:23:10.680Z,100838.28
2023-04-25T14:25:12.319Z,100844.75
2023-04-25T14:27:13.983Z,100836.59
2023-04-25T14:29:16.906Z,100841.59
2023-04-25T14:31:18.614Z,100838.44
2023-04-25T14:33:20.189Z,100835.53
2023-04-25T14:35:21.972Z,100827.09
2023-04-25T14:37:24.628Z,100837.16
2023-04-25T14:39:26.464Z,100835.88
2023-04-25T14:41:28.320Z,100835.47
2023-04-25T14:43:29.885Z,100830.81
2023-04-25T14:45:32.848Z,100838.56
2023-04-25T14:47:35.041Z,100835.59
2023-04-25T14:49:36.606Z,100831.63
2023-04-25T14:51:38.180Z,100829.94
2023-04-25T14:53:40.712Z,100832.66
2023-04-25T14:55:42.559Z,100839.59
2023-04-25T14:57:44.082Z,100833.53
2023-04-25T14:59:45.752Z,100841.31
2023-04-25T15:01:48.730Z,100846.56
2023-04-25T15:03:51.639Z,100856.22
2023-04-25T15:05:53.633Z,100858.75
2023-04-25T15:07:55.133Z,100860.03
2023-04-25T15:09:56.970Z,100855.44
2023-04-25T15:11:59.106Z,100854.81
2023-04-25T15:14:00.800Z,100856.28
2023-04-25T15:16:02.514Z,100860.69
2023-04-25T15:18:05.709Z,100865.72
2023-04-25T15:20:08.566Z,100862.34
2023-04-25T15:22:10.957Z,100869.31
2023-04-25T15:24:12.903Z,100876.22
2023-04-25T15:26:14.483Z,100876.00
2023-04-25T15:28:16.101Z,100872.69
2023-04-25T15:30:18.733Z,100881.91
2023-04-25T15:32:20.403Z,100872.47
2023-04-25T15:34:23.527Z,100877.06
2023-04-25T15:36:25.222Z,100872.25
2023-04-25T15:38:26.892Z,100877.50
2023-04-25T15:40:28.660Z,100875.81
2023-04-25T15:42:30.463Z,100873.94
2023-04-25T15:44:32.220Z,100875.19
2023-04-25T15:46:33.915Z,100881.06
2023-04-25T15:48:35.745Z,100873.50
2023-04-25T15:50:38.759Z,100883.34
2023-04-25T15:52:40.549Z,100886.72
2023-04-25T15:54:42.067Z,100880.00
2023-04-25T15:56:43.935Z,100885.66
2023-04-25T15:58:45.591Z,100880.81
2023-04-25T16:00:47.369Z,100879.75
2023-04-25T16:02:49.083Z,100882.06
2023-04-25T16:04:50.874Z,100884.19
2023-04-25T16:06:53.879Z,100883.94
2023-04-25T16:08:55.934Z,100883.75
2023-04-25T16:10:57.497Z,100882.06
2023-04-25T16:12:59.085Z,100886.47
2023-04-25T16:15:00.657Z,100885.44
2023-04-25T16:17:02.231Z,100892.34
2023-04-25T16:19:03.842Z,100891.72
2023-04-25T16:21:05.503Z,100895.28
2023-04-25T16:23:08.980Z,100890.03
2023-04-25T16:25:11.012Z,100896.97
2023-04-25T16:27:12.601Z,100898.22
2023-04-25T16:29:14.290Z,100893.38
2023-04-25T16:31:15.895Z,100898.22
2023-04-25T16:33:17.480Z,100892.13
2023-04-25T16:35:19.200Z,100902.41
2023-04-25T16:37:20.851Z,100890.44
2023-04-25T16:39:23.916Z,100891.28
2023-04-25T16:41:25.582Z,100893.81
2023-04-25T16:43:27.088Z,100894.25
2023-04-25T16:45:28.828Z,100894.00
2023-04-25T16:47:30.467Z,100904.91
2023-04-25T16:49:32.179Z,100898.44
2023-04-25T16:51:33.800Z,100901.16
2023-04-25T16:53:35.314Z,100901.16
2023-04-25T16:55:38.265Z,100899.47
2023-04-25T16:57:39.839Z,100900.09
2023-04-25T16:59:41.480Z,100904.09
2023-04-25T17:01:43.113Z,100905.78
2023-04-25T17:03:45.137Z,100900.72
2023-04-25T17:05:50.116Z,100907.88
2023-04-25T17:07:51.651Z,100904.94
2023-04-25T17:09:53.337Z,100909.34
2023-04-25T17:11:56.195Z,100903.69
2023-04-25T17:13:57.789Z,100906.22
2023-04-25T17:15:59.802Z,100913.94
2023-04-25T17:18:01.408Z,100911.88
2023-04-25T17:20:03.325Z,100908.91
2023-04-25T17:22:04.912Z,100910.19
2023-04-25T17:24:19.435Z,100913.31
2023-04-25T17:26:20.994Z,100917.28
2023-04-25T17:28:23.972Z,100921.25
2023-04-25T17:30:25.746Z,100921.91
2023-04-25T17:32:27.422Z,100926.53
2023-04-25T17:34:29.099Z,100927.38
2023-04-25T17:36:31.049Z,100923.38
2023-04-25T17:38:49.037Z,100918.34
2023-04-25T17:40:50.879Z,100917.47
2023-04-25T17:42:52.520Z,100931.72
2023-04-25T17:44:55.607Z,100928.78
2023-04-25T17:46:57.237Z,100924.16
2023-04-25T17:48:58.903Z,100935.22
2023-04-25T17:51:00.659Z,100935.84
2023-04-25T17:53:02.710Z,100944.41
2023-04-25T17:55:05.021Z,100943.38
2023-04-25T17:57:06.568Z,100949.63
2023-04-25T17:59:08.267Z,100942.28
2023-04-25T18:01:11.322Z,100947.91
2023-04-25T18:03:13.113Z,100956.91
2023-04-25T18:05:14.929Z,100949.75
2023-04-25T18:07:16.575Z,100949.50
2023-04-25T18:09:18.289Z,100955.56
2023-04-25T18:11:20.735Z,100950.06
2023-04-25T18:13:22.438Z,100956.97
2023-04-25T18:15:24.127Z,100960.28
2023-04-25T18:17:27.220Z,100960.25
2023-04-25T18:19:28.888Z,100967.75
2023-04-25T18:21:30.726Z,100966.44
2023-04-25T18:23:35.402Z,100971.66
2023-04-25T18:25:37.086Z,100977.47
2023-04-25T18:27:39.522Z,100978.09
2023-04-25T18:29:44.259Z,100973.25
2023-04-25T18:31:47.640Z,100980.13
2023-04-25T18:33:52.577Z,100974.41
2023-04-25T18:37:58.814Z,100974.78
2023-04-25T18:40:00.425Z,100982.47
2023-04-25T18:42:06.690Z,100983.25
2023-04-25T18:44:10.800Z,100983.66
2023-04-25T18:46:12.574Z,100995.94
2023-04-25T18:48:14.472Z,100988.41
2023-04-25T18:50:17.581Z,100976.44
2023-04-25T18:52:19.245Z,100983.28
2023-04-25T18:54:20.911Z,100990.97
2023-04-25T18:56:23.385Z,100989.69
2023-04-25T18:58:25.077Z,100993.63
2023-04-25T19:00:26.657Z,100995.06
2023-04-25T19:02:28.573Z,100997.31
2023-04-25T19:04:30.373Z,100995.16
2023-04-25T19:06:33.558Z,100998.28
2023-04-25T19:08:35.188Z,101002.41
2023-04-25T19:10:37.292Z,101000.09
2023-04-25T19:12:38.944Z,100993.19
2023-04-25T19:14:48.274Z,100992.72
2023-04-25T19:16:49.956Z,100993.94
2023-04-25T19:18:54.727Z,100999.94
2023-04-25T19:20:56.365Z,101000.31
2023-04-25T19:23:01.847Z,100999.00
2023-04-25T19:25:10.305Z,101000.25
2023-04-25T19:27:12.414Z,101012.31
2023-04-25T19:29:15.450Z,101030.47
2023-04-25T19:31:17.160Z,101028.31
2023-04-25T19:33:22.023Z,101033.09
2023-04-25T19:35:23.716Z,101024.28
2023-04-25T19:37:25.263Z,101019.44
2023-04-25T19:39:28.350Z,101024.41
2023-04-25T19:41:31.228Z,101023.13
2023-04-25T19:43:33.006Z,101030.59
2023-04-25T19:45:34.747Z,101023.22
2023-04-25T19:47:39.507Z,101023.59
2023-04-25T19:49:41.422Z,101022.09
2023-04-25T19:51:43.390Z,101019.75
2023-04-25T19:53:45.062Z,101019.13
2023-04-25T19:55:48.055Z,101029.28
2023-04-25T19:57:51.308Z,101022.34
2023-04-25T19:59:53.064Z,101023.75
2023-04-25T20:01:57.345Z,101027.69
2023-04-25T20:03:59.048Z,101026.38
2023-04-25T20:06:00.676Z,101024.84
2023-04-25T20:08:03.160Z,101028.63
2023-04-25T20:10:07.253Z,101037.09
2023-04-25T20:12:10.248Z,101025.78
2023-04-25T20:14:11.905Z,101024.28
2023-04-25T20:16:13.757Z,101031.09
2023-04-25T20:18:15.700Z,101028.94
2023-04-25T20:20:17.806Z,101033.72
2023-04-25T20:22:19.448Z,101034.94
2023-04-25T20:24:21.208Z,101035.13
2023-04-25T20:26:23.128Z,101025.66
2023-04-25T20:28:26.223Z,101034.16
2023-04-25T20:30:30.949Z,101029.13
2023-04-25T20:32:47.910Z,101025.75
2023-04-25T20:35:06.529Z,101025.09
2023-04-25T20:37:08.352Z,101027.34
2023-04-25T20:39:19.954Z,101026.00
2023-04-25T20:41:23.900Z,101036.22
2023-04-25T20:43:29.089Z,101035.53
2023-04-25T20:45:33.821Z,101027.56
2023-04-25T20:47:36.223Z,101039.63
2023-04-25T20:49:44.580Z,101031.69
2023-04-25T20:51:49.321Z,101030.19
2023-04-25T20:53:59.798Z,101031.22
2023-04-25T20:56:01.510Z,101026.34
2023-04-25T20:58:03.816Z,101038.03
2023-04-25T21:00:11.342Z,101038.84
2023-04-25T21:02:13.954Z,101033.78
2023-04-25T21:04:15.859Z,101043.13
2023-04-25T21:06:21.449Z,101036.03
2023-04-25T21:08:26.390Z,101040.78
2023-04-25T21:10:44.823Z,101038.63
2023-04-25T21:13:02.336Z,101037.97
2023-04-25T21:15:04.613Z,101031.25
2023-04-25T21:17:12.279Z,101039.53
2023-04-25T21:19:13.940Z,101038.03
2023-04-25T21:21:21.752Z,101040.91
2023-04-25T21:23:28.119Z,101040.63
2023-04-25T21:25:45.176Z,101038.25
2023-04-25T21:30:40.092Z,101033.75
2023-04-25T21:32:48.945Z,101044.56
2023-04-25T21:34:50.602Z,101030.56
2023-04-25T21:36:52.266Z,101032.59
2023-04-25T21:38:59.964Z,101043.59
2023-04-25T21:41:01.634Z,101041.09
2023-04-25T21:43:03.286Z,101036.53
2023-04-25T21:45:06.650Z,101042.94
2023-04-25T21:47:08.407Z,101035.69
2023-04-25T21:49:12.529Z,101045.44
2023-04-25T21:51:14.108Z,101046.50
2023-04-25T21:53:15.676Z,101049.19
2023-04-25T21:55:17.388Z,101048.34
2023-04-25T21:57:19.334Z,101047.50
2023-04-25T21:59:23.482Z,101042.94
2023-04-25T22:01:25.592Z,101046.66
2023-04-25T22:03:27.495Z,101046.66
2023-04-25T22:05:30.620Z,101046.00
2023-04-25T22:07:32.181Z,101045.16
2023-04-25T22:09:43.870Z,101056.00
2023-04-25T22:11:53.642Z,101054.13
2023-04-25T22:13:55.206Z,101048.88
2023-04-25T22:15:56.953Z,101046.72
2023-04-25T22:17:59.244Z,101057.53
2023-04-25T22:20:01.340Z,101048.56
2023-04-25T22:22:04.488Z,101049.41
2023-04-25T22:24:06.686Z,101055.88
2023-04-25T22:26:08.633Z,101050.44
2023-04-25T22:28:10.288Z,101054.81
2023-04-25T22:30:12.490Z,101063.97
2023-04-25T22:32:14.040Z,101059.56
2023-04-25T22:34:15.755Z,101063.97
2023-04-25T22:36:17.373Z,101062.09
2023-04-25T22:38:20.457Z,101065.00
2023-04-25T22:40:22.049Z,101061.59
2023-04-25T22:42:24.000Z,101055.19
2023-04-25T22:44:25.657Z,101065.16
2023-04-25T22:46:27.380Z,101068.06
2023-04-25T22:48:29.096Z,101073.25
2023-04-25T22:50:30.664Z,101070.06
2023-04-25T22:52:32.329Z,101062.66
2023-04-25T22:54:35.345Z,101072.78
2023-04-25T22:56:36.887Z,101077.34
2023-04-25T22:58:39.214Z,101067.72
2023-04-25T23:00:40.752Z,101073.50
2023-04-25T23:02:43.873Z,101092.59
2023-04-25T23:04:45.462Z,101089.88
2023-04-25T23:06:47.107Z,101083.16
2023-04-25T23:08:48.704Z,101091.44
2023-04-25T23:10:51.749Z,101094.31
2023-04-25T23:12:53.387Z,101084.50
2023-04-25T23:14:54.934Z,101097.38
2023-04-25T23:16:56.524Z,101089.44
2023-04-25T23:18:58.090Z,101094.84
2023-04-25T23:20:59.707Z,101100.44
2023-04-25T23:23:01.449Z,101105.66
2023-04-25T23:25:03.192Z,101103.13
2023-04-25T23:27:06.205Z,101094.34
2023-04-25T23:29:07.814Z,101099.94
2023-04-25T23:31:10.900Z,101099.25
2023-04-25T23:33:12.568Z,101098.75
2023-04-25T23:35:14.102Z,101097.91
2023-04-25T23:37:15.972Z,101093.72